Time;durP1;ratioP1;P1;durP2;ratioP2;P2;SDS_P1;SDS_P2;PMS_P1;PMS_P2;Temp;Humidity;BMP_temperature;BMP_pressure;BME280_temperature;BME280_humidity;BME280_pressure;Samples;Min_cycle;Max_cycle;Signal;HPM_P1;HPM_P2
2023/04/22 00:00:00;;;;;;;17.75;13.68;;;11.90;99.90;;;;;;5075221;28;20058;-79
2023/04/22 00:02:26;;;;;;;15.98;13.88;;;11.80;99.90;;;;;;5059408;28;20051;-79
2023/04/22 00:04:52;;;;;;;17.80;13.02;;;11.80;99.90;;;;;;5092616;28;20056;-79
2023/04/22 00:07:18;;;;;;;14.15;11.70;;;11.80;99.90;;;;;;5111092;28;20051;-79
2023/04/22 00:09:44;;;;;;;13.82;12.43;;;11.80;99.90;;;;;;5110499;28;20048;-78
2023/04/22 00:12:10;;;;;;;17.17;13.55;;;11.70;99.90;;;;;;5059664;28;20372;-79
2023/04/22 00:14:36;;;;;;;14.88;13.38;;;11.70;99.90;;;;;;5112238;28;20050;-79
2023/04/22 00:17:03;;;;;;;18.20;14.50;;;11.60;99.90;;;;;;5062154;28;20115;-77
2023/04/22 00:19:29;;;;;;;15.82;13.68;;;11.60;99.90;;;;;;5111334;28;20055;-79
2023/04/22 00:21:55;;;;;;;14.95;13.45;;;11.50;99.90;;;;;;5075149;28;20455;-77
2023/04/22 00:24:20;;;;;;;16.75;13.52;;;11.40;99.90;;;;;;5092556;28;20081;-77
2023/04/22 00:26:46;;;;;;;15.38;12.63;;;11.40;99.90;;;;;;5075386;28;20048;-78
2023/04/22 00:29:12;;;;;;;16.45;12.80;;;11.30;99.90;;;;;;5092516;28;20079;-78
2023/04/22 00:31:39;;;;;;;16.17;14.15;;;11.30;99.90;;;;;;5092337;28;20051;-78
2023/04/22 00:34:05;;;;;;;16.17;13.75;;;11.20;99.90;;;;;;5075297;28;20055;-78
2023/04/22 00:36:30;;;;;;;16.42;13.65;;;11.20;99.90;;;;;;5091855;28;20180;-79
2023/04/22 00:38:56;;;;;;;16.35;14.35;;;11.10;99.90;;;;;;5091974;28;20086;-78
2023/04/22 00:41:22;;;;;;;16.63;14.88;;;11.10;99.90;;;;;;5092615;28;20054;-77
2023/04/22 00:43:47;;;;;;;17.30;13.70;;;11.00;99.90;;;;;;5093898;28;20510;-77
2023/04/22 00:46:14;;;;;;;16.23;14.45;;;10.90;99.90;;;;;;5092383;28;20059;-80
2023/04/22 00:48:40;;;;;;;17.58;15.18;;;10.90;99.90;;;;;;5091439;28;20047;-79
2023/04/22 00:51:06;;;;;;;15.40;13.38;;;10.90;99.90;;;;;;5058601;28;20050;-78
2023/04/22 00:53:32;;;;;;;16.60;13.30;;;10.80;99.90;;;;;;5091936;28;20053;-79
2023/04/22 00:55:58;;;;;;;17.70;14.45;;;10.80;99.90;;;;;;5092036;28;20103;-80
2023/04/22 00:58:26;;;;;;;16.65;14.88;;;10.70;99.90;;;;;;5110346;28;20562;-79
2023/04/22 01:00:52;;;;;;;18.38;15.57;;;10.70;99.90;;;;;;5091741;28;20597;-77
2023/04/22 01:03:19;;;;;;;15.65;14.02;;;10.70;99.90;;;;;;5059000;28;20048;-82
2023/04/22 01:05:46;;;;;;;16.60;14.20;;;10.70;99.90;;;;;;5059145;28;20138;-79
2023/04/22 01:08:13;;;;;;;16.20;13.18;;;10.70;99.90;;;;;;5075096;28;20063;-78
2023/04/22 01:10:44;;;;;;;15.40;13.85;;;10.70;99.90;;;;;;5091479;28;20047;-78
2023/04/22 01:13:12;;;;;;;16.50;14.15;;;10.60;99.90;;;;;;5109796;28;20048;-78
2023/04/22 01:15:40;;;;;;;17.20;15.23;;;10.50;99.90;;;;;;5091634;28;20495;-79
2023/04/22 01:18:06;;;;;;;17.05;15.00;;;10.50;99.90;;;;;;5090880;28;20040;-79
2023/04/22 01:20:32;;;;;;;16.70;14.68;;;10.40;99.90;;;;;;5091252;28;20043;-79
2023/04/22 01:23:01;;;;;;;17.45;14.68;;;10.40;99.90;;;;;;5091678;28;20443;-77
2023/04/22 01:25:27;;;;;;;18.73;16.00;;;10.40;99.90;;;;;;5109761;28;20075;-78
2023/04/22 01:27:54;;;;;;;19.83;14.90;;;10.40;99.90;;;;;;5058048;28;20163;-79
2023/04/22 01:30:25;;;;;;;16.35;12.50;;;10.30;99.90;;;;;;5075617;28;20055;-78
2023/04/22 01:32:54;;;;;;;15.05;13.45;;;10.40;99.90;;;;;;5109330;28;20048;-79
2023/04/22 01:35:20;;;;;;;18.05;14.52;;;10.40;99.90;;;;;;5073859;28;20081;-79
2023/04/22 01:37:46;;;;;;;17.92;14.95;;;10.20;99.90;;;;;;5091068;28;20140;-79
2023/04/22 01:40:12;;;;;;;21.60;17.10;;;10.20;99.90;;;;;;5095209;28;20593;-78
2023/04/22 01:42:37;;;;;;;19.17;16.85;;;10.10;99.90;;;;;;5061678;28;20130;-78
2023/04/22 01:45:05;;;;;;;18.52;16.33;;;10.10;99.90;;;;;;5112939;28;20058;-78
2023/04/22 01:47:30;;;;;;;22.25;17.27;;;10.10;99.90;;;;;;5094518;28;20121;-78
2023/04/22 01:50:08;;;;;;;20.88;17.23;;;10.00;99.90;;;;;;5080883;28;20144;-78
2023/04/22 01:52:33;;;;;;;18.05;16.15;;;10.00;99.90;;;;;;5062573;28;20471;-78
2023/04/22 01:55:00;;;;;;;18.70;16.73;;;10.00;99.90;;;;;;5114373;28;20085;-78
2023/04/22 01:57:29;;;;;;;19.60;16.27;;;10.00;99.90;;;;;;5095862;28;20093;-77
2023/04/22 01:59:57;;;;;;;21.88;16.58;;;9.90;99.90;;;;;;5113358;28;20079;-78
2023/04/22 02:02:22;;;;;;;19.85;16.48;;;9.90;99.90;;;;;;5097070;28;20432;-78
2023/04/22 02:04:48;;;;;;;18.05;15.85;;;9.90;99.90;;;;;;5113899;28;20055;-78
2023/04/22 02:07:14;;;;;;;20.55;16.33;;;9.90;99.90;;;;;;5094003;28;20039;-78
2023/04/22 02:09:41;;;;;;;19.15;16.92;;;9.90;99.90;;;;;;5094572;28;20475;-78
2023/04/22 02:12:09;;;;;;;23.20;17.30;;;9.80;99.90;;;;;;5077992;28;20391;-77
2023/04/22 02:14:35;;;;;;;22.95;18.70;;;9.80;99.90;;;;;;5061430;28;20052;-79
2023/04/22 02:17:02;;;;;;;20.35;17.73;;;9.90;99.90;;;;;;5089980;28;20263;-79
2023/04/22 02:19:28;;;;;;;20.30;17.10;;;9.90;99.90;;;;;;5073514;28;20064;-77
2023/04/22 02:21:54;;;;;;;21.15;17.70;;;9.90;99.90;;;;;;5090057;28;20117;-78
2023/04/22 02:24:21;;;;;;;21.88;18.67;;;9.90;99.90;;;;;;5090737;28;20059;-78
2023/04/22 02:26:48;;;;;;;20.42;18.05;;;9.90;99.90;;;;;;5074162;28;20409;-78
2023/04/22 02:29:16;;;;;;;23.35;17.77;;;10.00;99.90;;;;;;5073933;28;20131;-79
2023/04/22 02:31:41;;;;;;;20.83;17.75;;;9.20;99.90;;;;;;5074001;28;20127;-77
2023/04/22 02:34:14;;;;;;;22.35;18.25;;;10.00;99.90;;;;;;5090945;28;20101;-77
2023/04/22 02:36:40;;;;;;;21.05;17.27;;;10.00;99.90;;;;;;5057218;28;20056;-77
2023/04/22 02:39:06;;;;;;;20.90;18.58;;;10.00;99.90;;;;;;5090482;28;20052;-78
2023/04/22 02:41:35;;;;;;;23.25;19.27;;;10.00;99.90;;;;;;5090637;28;20063;-77
2023/04/22 02:44:05;;;;;;;19.98;17.80;;;10.00;99.90;;;;;;5074209;28;20059;-78
2023/04/22 02:46:31;;;;;;;19.15;17.05;;;10.90;99.90;;;;;;5090352;28;20602;-78
2023/04/22 02:48:56;;;;;;;17.77;15.88;;;9.90;99.90;;;;;;5090412;28;20055;-77
2023/04/22 02:51:22;;;;;;;18.58;16.05;;;9.80;99.90;;;;;;5090137;28;20044;-78
2023/04/22 02:53:53;;;;;;;25.85;17.08;;;9.70;99.90;;;;;;5090498;28;20062;-79
2023/04/22 02:56:19;;;;;;;17.38;15.57;;;9.60;99.90;;;;;;5056989;28;20056;-78
2023/04/22 02:58:45;;;;;;;21.98;17.27;;;9.50;99.90;;;;;;5091628;28;20052;-78
2023/04/22 03:01:11;;;;;;;20.33;16.90;;;9.40;99.90;;;;;;5091567;28;20055;-78
2023/04/22 03:03:36;;;;;;;19.13;16.52;;;9.40;99.90;;;;;;5091388;28;20550;-78
2023/04/22 03:06:02;;;;;;;19.85;17.08;;;9.40;99.90;;;;;;5091905;28;20036;-78
2023/04/22 03:08:28;;;;;;;19.15;16.98;;;9.30;99.90;;;;;;5091691;28;20058;-79
2023/04/22 03:10:53;;;;;;;21.42;17.10;;;9.30;99.90;;;;;;5073824;28;20163;-77
2023/04/22 03:13:19;;;;;;;19.15;17.02;;;9.20;99.90;;;;;;5090953;28;20047;-78
2023/04/22 03:15:46;;;;;;;20.63;18.10;;;9.20;99.90;;;;;;5090388;28;20060;-78
2023/04/22 03:18:12;;;;;;;20.40;17.60;;;9.10;99.90;;;;;;5089783;28;20059;-78
2023/04/22 03:20:38;;;;;;;23.58;19.35;;;9.10;99.90;;;;;;5091987;28;20051;-78
2023/04/22 03:23:06;;;;;;;19.27;17.25;;;9.00;99.90;;;;;;5091047;28;20109;-78
2023/04/22 03:25:31;;;;;;;23.55;18.58;;;9.00;99.90;;;;;;5090838;28;20074;-79
2023/04/22 03:27:57;;;;;;;19.13;17.13;;;9.00;99.90;;;;;;5091138;28;20384;-78
2023/04/22 03:30:26;;;;;;;23.65;18.67;;;8.90;99.90;;;;;;5090101;28;20048;-78
2023/04/22 03:32:52;;;;;;;19.70;17.60;;;8.90;99.90;;;;;;5090195;28;20109;-80
2023/04/22 03:35:19;;;;;;;18.88;16.90;;;8.80;99.90;;;;;;5072843;28;20054;-79
2023/04/22 03:37:44;;;;;;;19.60;17.50;;;8.80;99.90;;;;;;5089490;28;20048;-79
2023/04/22 03:40:10;;;;;;;20.05;17.95;;;8.80;99.90;;;;;;5089665;28;20047;-79
2023/04/22 03:42:37;;;;;;;22.75;18.67;;;8.70;99.90;;;;;;5072603;28;20095;-79
2023/04/22 03:45:04;;;;;;;23.33;19.25;;;8.20;99.90;;;;;;5090385;28;20047;-79
2023/04/22 03:47:34;;;;;;;23.00;19.90;;;8.70;99.90;;;;;;5089247;28;20060;-78
2023/04/22 03:49:59;;;;;;;21.10;18.73;;;8.70;99.90;;;;;;5090675;28;20116;-78
2023/04/22 03:52:25;;;;;;;22.77;18.20;;;8.60;99.90;;;;;;5089175;28;20056;-78
2023/04/22 03:54:51;;;;;;;21.90;19.13;;;8.60;99.90;;;;;;5090565;28;20062;-78
2023/04/22 03:57:17;;;;;;;21.33;18.33;;;8.50;99.90;;;;;;5072059;28;20040;-78
2023/04/22 03:59:42;;;;;;;21.00;18.10;;;8.50;99.90;;;;;;5071948;28;20906;-78
2023/04/22 04:02:08;;;;;;;25.58;19.20;;;8.50;99.90;;;;;;5071408;28;20063;-79
2023/04/22 04:04:34;;;;;;;22.58;18.35;;;8.40;99.90;;;;;;5071918;28;20127;-76
2023/04/22 04:07:00;;;;;;;25.13;19.15;;;8.40;99.90;;;;;;5089600;28;20052;-78
2023/04/22 04:09:26;;;;;;;24.02;19.23;;;8.40;99.90;;;;;;5089047;28;20380;-76
2023/04/22 04:11:52;;;;;;;22.90;19.70;;;8.40;99.90;;;;;;5089356;28;20048;-78
2023/04/22 04:14:18;;;;;;;24.17;20.08;;;8.40;99.90;;;;;;5090986;28;20105;-78
2023/04/22 04:16:44;;;;;;;22.65;19.52;;;8.40;99.90;;;;;;5072431;28;20442;-78
2023/04/22 04:19:10;;;;;;;26.95;20.50;;;8.40;99.90;;;;;;5090184;28;20044;-78
2023/04/22 04:21:38;;;;;;;22.48;18.75;;;8.30;99.90;;;;;;5090284;28;20131;-79
2023/04/22 04:24:05;;;;;;;22.70;19.48;;;8.30;99.90;;;;;;5090517;28;20118;-78
2023/04/22 04:26:32;;;;;;;22.05;19.65;;;8.30;99.90;;;;;;5090634;28;20078;-79
2023/04/22 04:29:00;;;;;;;22.58;18.90;;;8.40;99.90;;;;;;5090364;28;20056;-78
2023/04/22 04:31:27;;;;;;;22.73;18.48;;;8.40;99.90;;;;;;5072553;28;20156;-78
2023/04/22 04:33:52;;;;;;;21.95;18.70;;;8.30;99.90;;;;;;5090968;28;20048;-79
2023/04/22 04:36:18;;;;;;;22.98;19.02;;;8.30;99.90;;;;;;5074078;28;20070;-80
2023/04/22 04:38:45;;;;;;;25.13;19.95;;;8.30;99.90;;;;;;5091459;28;20052;-76
2023/04/22 04:41:11;;;;;;;26.67;19.15;;;8.40;99.90;;;;;;5090096;28;20056;-78
2023/04/22 04:43:45;;;;;;;22.45;18.42;;;8.40;99.90;;;;;;5088390;28;20601;-78
2023/04/22 04:46:10;;;;;;;21.67;19.08;;;8.40;99.90;;;;;;5087989;28;20052;-79
2023/04/22 04:48:36;;;;;;;23.33;19.17;;;8.40;99.90;;;;;;5092783;28;20046;-77
2023/04/22 04:51:03;;;;;;;24.35;20.02;;;8.60;99.90;;;;;;5091492;28;20108;-78
2023/04/22 04:53:28;;;;;;;24.60;19.85;;;8.90;99.90;;;;;;5109693;28;20486;-77
2023/04/22 04:55:54;;;;;;;23.10;18.63;;;9.50;99.90;;;;;;5109590;28;20092;-78
2023/04/22 04:58:20;;;;;;;21.63;17.95;;;9.80;99.90;;;;;;5091574;28;20494;-77
2023/04/22 05:00:46;;;;;;;18.50;16.50;;;9.80;99.90;;;;;;5110486;28;20062;-79
2023/04/22 05:03:14;;;;;;;18.08;16.02;;;9.80;99.90;;;;;;5093271;28;20133;-79
2023/04/22 05:05:40;;;;;;;17.27;14.85;;;9.80;99.90;;;;;;5093259;28;20051;-79
2023/04/22 05:08:06;;;;;;;18.50;15.23;;;9.70;99.90;;;;;;5107795;28;20052;-79
2023/04/22 05:10:31;;;;;;;20.15;15.60;;;9.70;99.90;;;;;;5108159;28;20032;-79
2023/04/22 05:13:00;;;;;;;16.92;15.13;;;9.60;99.90;;;;;;5108826;28;20051;-79
2023/04/22 05:15:26;;;;;;;17.05;14.88;;;9.60;99.90;;;;;;5112284;28;20055;-79
2023/04/22 05:17:53;;;;;;;17.52;15.63;;;9.50;99.90;;;;;;5128324;27;20086;-78
2023/04/22 05:20:24;;;;;;;17.27;15.48;;;9.50;99.90;;;;;;5116395;27;20212;-77
2023/04/22 05:22:50;;;;;;;17.90;16.00;;;9.50;99.90;;;;;;5115803;27;20084;-77
2023/04/22 05:25:16;;;;;;;20.30;16.27;;;9.50;99.90;;;;;;5081739;27;20047;-79
2023/04/22 05:27:47;;;;;;;19.88;17.73;;;9.50;99.90;;;;;;5116244;27;20050;-77
2023/04/22 05:30:13;;;;;;;18.35;16.55;;;9.70;99.90;;;;;;5115565;27;20062;-77
2023/04/22 05:32:39;;;;;;;20.08;17.98;;;9.80;99.90;;;;;;5115924;27;20058;-77
2023/04/22 05:35:05;;;;;;;19.88;17.48;;;9.80;99.90;;;;;;5115621;27;20055;-78
2023/04/22 05:37:31;;;;;;;18.83;16.70;;;10.00;99.90;;;;;;5081489;27;20047;-78
2023/04/22 05:39:56;;;;;;;20.85;18.58;;;10.00;99.90;;;;;;5115364;27;20054;-78
2023/04/22 05:42:22;;;;;;;20.25;16.95;;;10.10;99.90;;;;;;5133581;27;20043;-78
2023/04/22 05:44:48;;;;;;;23.05;17.67;;;10.10;99.90;;;;;;5133679;27;20050;-78
2023/04/22 05:47:16;;;;;;;19.92;17.92;;;10.20;99.90;;;;;;5133503;27;20047;-78
2023/04/22 05:49:42;;;;;;;20.20;18.10;;;10.20;99.90;;;;;;5098221;27;20043;-76
2023/04/22 05:52:08;;;;;;;21.50;16.55;;;10.30;99.90;;;;;;5081562;27;20096;-77
2023/04/22 05:54:33;;;;;;;19.92;15.65;;;10.30;99.90;;;;;;5135264;27;20055;-78
2023/04/22 05:56:59;;;;;;;17.15;15.38;;;10.30;99.90;;;;;;5115125;27;20432;-78
2023/04/22 05:59:25;;;;;;;17.17;15.32;;;10.40;99.90;;;;;;5114341;27;20047;-78
2023/04/22 06:01:51;;;;;;;17.38;15.38;;;10.40;99.90;;;;;;5133039;27;20080;-78
2023/04/22 06:04:17;;;;;;;16.77;14.50;;;10.50;99.90;;;;;;5132046;27;20047;-78
2023/04/22 06:06:43;;;;;;;18.27;15.05;;;10.50;99.90;;;;;;5132435;27;20122;-79
2023/04/22 06:09:09;;;;;;;16.75;14.98;;;10.60;99.90;;;;;;5080447;27;20628;-78
2023/04/22 06:11:34;;;;;;;15.57;13.93;;;10.60;99.90;;;;;;5132958;27;20065;-78
2023/04/22 06:14:00;;;;;;;16.08;14.38;;;10.70;99.90;;;;;;5132933;27;20493;-78
2023/04/22 06:16:26;;;;;;;18.25;15.25;;;10.70;99.90;;;;;;5097066;27;20134;-78
2023/04/22 06:18:53;;;;;;;16.63;14.75;;;10.80;99.90;;;;;;5113942;27;20062;-79
2023/04/22 06:21:19;;;;;;;16.50;14.80;;;10.90;99.90;;;;;;5114211;27;20051;-77
2023/04/22 06:23:45;;;;;;;14.82;13.38;;;10.90;99.90;;;;;;5096872;27;20065;-78
2023/04/22 06:26:11;;;;;;;16.05;14.45;;;11.00;99.90;;;;;;5103833;27;20446;-81
2023/04/22 06:28:44;;;;;;;16.42;14.43;;;11.10;99.90;;;;;;5100864;27;20055;-80
2023/04/22 06:31:10;;;;;;;16.30;14.30;;;11.20;99.90;;;;;;5084725;27;20418;-80
2023/04/22 06:33:36;;;;;;;15.48;13.82;;;11.30;99.90;;;;;;5084698;27;20150;-80
2023/04/22 06:36:03;;;;;;;15.70;14.18;;;11.30;99.90;;;;;;5104599;27;20119;-81
2023/04/22 06:38:29;;;;;;;15.20;13.48;;;11.40;99.90;;;;;;5105020;27;20043;-82
2023/04/22 06:41:01;;;;;;;16.10;14.48;;;11.50;99.90;;;;;;5122779;27;20129;-82
2023/04/22 06:43:27;;;;;;;15.50;13.90;;;11.50;99.90;;;;;;5101905;27;20741;-80
2023/04/22 06:45:52;;;;;;;15.27;13.68;;;11.60;99.90;;;;;;5123191;27;20035;-81
2023/04/22 06:48:18;;;;;;;16.90;13.77;;;11.70;99.90;;;;;;5101100;27;20050;-80
2023/04/22 06:50:44;;;;;;;14.65;13.07;;;11.70;99.90;;;;;;5070095;27;20421;-80
2023/04/22 06:53:10;;;;;;;15.55;13.82;;;11.80;99.90;;;;;;5103661;27;20047;-80
2023/04/22 06:55:36;;;;;;;14.88;13.20;;;11.80;99.90;;;;;;5086982;27;20042;-81
2023/04/22 06:58:01;;;;;;;15.80;12.85;;;11.90;99.90;;;;;;5052627;27;20039;-80
2023/04/22 07:00:28;;;;;;;15.52;13.18;;;11.90;99.90;;;;;;5122507;27;20043;-81
2023/04/22 07:02:54;;;;;;;17.33;13.85;;;12.00;99.90;;;;;;5088286;27;20398;-80
2023/04/22 07:05:20;;;;;;;17.15;13.95;;;12.00;99.90;;;;;;5120855;27;20529;-81
2023/04/22 07:07:46;;;;;;;16.48;13.82;;;12.10;99.90;;;;;;5102038;27;20052;-82
2023/04/22 07:10:13;;;;;;;14.35;12.57;;;12.20;99.90;;;;;;5102927;27;20079;-79
2023/04/22 07:12:39;;;;;;;15.13;13.45;;;12.30;99.90;;;;;;5104242;27;20099;-81
2023/04/22 07:15:05;;;;;;;14.48;12.98;;;12.40;99.90;;;;;;5122073;27;20081;-81
2023/04/22 07:17:31;;;;;;;14.77;12.93;;;12.50;99.90;;;;;;5082260;28;20134;-80
2023/04/22 07:19:57;;;;;;;14.57;13.02;;;12.60;99.90;;;;;;5097717;28;20146;-81
2023/04/22 07:22:22;;;;;;;15.48;12.65;;;12.60;99.90;;;;;;5097297;28;20097;-82
2023/04/22 07:24:48;;;;;;;14.90;13.45;;;12.60;99.90;;;;;;5103864;28;20199;-78
2023/04/22 07:27:14;;;;;;;14.95;13.40;;;12.80;99.90;;;;;;5109407;28;20152;-80
2023/04/22 07:29:39;;;;;;;14.88;13.23;;;12.80;99.90;;;;;;5082575;28;20040;-82
2023/04/22 07:32:05;;;;;;;15.50;14.07;;;12.90;99.90;;;;;;5097915;28;20051;-79
2023/04/22 07:34:31;;;;;;;15.68;13.63;;;12.90;99.90;;;;;;5098827;28;20048;-80
2023/04/22 07:36:56;;;;;;;15.23;13.65;;;12.90;99.90;;;;;;5085666;28;20039;-81
2023/04/22 07:39:22;;;;;;;14.32;12.95;;;13.00;99.90;;;;;;5099096;28;20039;-82
2023/04/22 07:41:48;;;;;;;15.82;14.25;;;13.10;99.90;;;;;;5101679;28;20043;-81
2023/04/22 07:44:17;;;;;;;16.20;13.48;;;13.10;99.90;;;;;;5100006;28;20730;-81
2023/04/22 07:46:43;;;;;;;15.90;14.32;;;13.20;99.90;;;;;;5103201;28;20076;-82
2023/04/22 07:49:08;;;;;;;15.45;13.85;;;13.30;99.90;;;;;;5092762;28;20134;-81
2023/04/22 07:51:34;;;;;;;15.10;13.50;;;13.40;99.90;;;;;;5091338;28;20043;-80
2023/04/22 07:54:00;;;;;;;17.15;13.60;;;13.50;99.90;;;;;;5079019;28;20123;-79
2023/04/22 07:56:25;;;;;;;16.10;13.82;;;13.50;99.90;;;;;;5082348;28;20070;-79
2023/04/22 07:58:51;;;;;;;14.30;12.80;;;13.70;99.90;;;;;;5100483;28;20040;-81
2023/04/22 08:01:17;;;;;;;16.58;13.73;;;13.80;99.90;;;;;;5064135;28;20056;-81
2023/04/22 08:03:42;;;;;;;14.77;13.20;;;14.00;99.90;;;;;;5100657;28;20044;-82
2023/04/22 08:06:08;;;;;;;14.82;13.32;;;14.20;99.90;;;;;;5098378;28;20040;-80
2023/04/22 08:08:35;;;;;;;14.60;11.90;;;14.40;99.90;;;;;;5080831;28;20090;-79
2023/04/22 08:11:01;;;;;;;13.15;11.48;;;14.50;99.90;;;;;;5084269;28;20086;-77
2023/04/22 08:13:26;;;;;;;13.02;11.63;;;14.70;99.90;;;;;;5109551;28;20090;-80
2023/04/22 08:15:52;;;;;;;13.05;11.65;;;15.00;99.90;;;;;;5092525;28;20035;-79
2023/04/22 08:18:18;;;;;;;11.90;10.68;;;15.30;99.90;;;;;;5101198;28;20473;-80
2023/04/22 08:20:46;;;;;;;13.18;11.85;;;15.90;99.90;;;;;;5065418;28;20047;-81
2023/04/22 08:23:11;;;;;;;10.95;9.85;;;16.30;99.90;;;;;;5082147;28;20064;-79
2023/04/22 08:25:38;;;;;;;11.75;10.50;;;16.60;99.90;;;;;;5097867;28;20092;-80
2023/04/22 08:28:03;;;;;;;11.63;10.43;;;16.80;99.90;;;;;;5064547;28;20048;-81
2023/04/22 08:30:31;;;;;;;10.95;9.90;;;16.90;99.90;;;;;;5097889;28;20134;-81
2023/04/22 08:32:56;;;;;;;11.45;9.15;;;17.10;99.90;;;;;;5100250;28;20051;-80
2023/04/22 08:35:22;;;;;;;11.45;9.60;;;17.40;99.90;;;;;;5095557;28;20062;-80
2023/04/22 08:37:48;;;;;;;11.18;9.55;;;17.60;99.90;;;;;;5081520;28;20058;-81
2023/04/22 08:40:13;;;;;;;11.50;9.73;;;17.70;99.90;;;;;;5108752;28;20548;-79
2023/04/22 08:42:39;;;;;;;9.90;8.90;;;17.90;99.90;;;;;;5109390;28;20055;-78
2023/04/22 08:45:05;;;;;;;10.70;9.65;;;18.20;99.90;;;;;;5095481;28;20068;-80
2023/04/22 08:47:35;;;;;;;10.30;9.30;;;18.40;99.90;;;;;;5109766;28;20044;-80
2023/04/22 08:50:05;;;;;;;10.35;9.27;;;18.80;99.90;;;;;;5102660;28;20121;-78
2023/04/22 08:52:31;;;;;;;10.43;9.43;;;19.10;99.90;;;;;;5087332;28;20059;-78
2023/04/22 08:55:00;;;;;;;11.00;9.88;;;19.50;99.90;;;;;;5095586;28;20044;-79
2023/04/22 08:57:46;;;;;;;10.65;9.55;;;18.90;98.90;;;;;;5068935;28;20113;-79
2023/04/22 09:00:18;;;;;;;10.10;9.15;;;19.00;99.90;;;;;;5097721;28;20573;-80
2023/04/22 09:02:44;;;;;;;10.93;8.95;;;19.40;99.90;;;;;;5086027;28;20055;-82
2023/04/22 09:05:10;;;;;;;10.18;9.27;;;19.70;99.40;;;;;;5101496;28;20067;-81
2023/04/22 09:07:42;;;;;;;9.32;8.38;;;19.90;99.20;;;;;;5051590;28;20039;-80
2023/04/22 09:13:28;;;;;;;10.18;9.18;;;20.30;97.30;;;;;;5098474;28;20717;-81
2023/04/22 09:15:56;;;;;;;10.10;9.20;;;20.40;97.00;;;;;;5096053;28;20134;-81
2023/04/22 09:18:21;;;;;;;10.23;8.95;;;20.50;99.70;;;;;;5096942;28;20146;-81
2023/04/22 09:20:48;;;;;;;9.93;8.85;;;20.40;96.60;;;;;;5089939;28;20040;-78
2023/04/22 09:23:13;;;;;;;9.50;8.55;;;21.00;98.30;;;;;;5037579;28;20658;-79
2023/04/22 09:25:39;;;;;;;9.82;8.93;;;20.70;95.70;;;;;;5086958;28;20049;-78
2023/04/22 09:28:06;;;;;;;10.07;8.95;;;20.40;97.80;;;;;;5054299;28;20060;-78
2023/04/22 09:30:33;;;;;;;10.60;9.02;;;20.80;97.30;;;;;;5055016;28;20400;-79
2023/04/22 09:33:04;;;;;;;9.57;8.52;;;21.40;95.50;;;;;;5091772;28;20162;-80
2023/04/22 09:35:31;;;;;;;9.60;8.60;;;21.60;94.80;;;;;;5087792;28;20512;-78
2023/04/22 09:38:06;;;;;;;10.05;9.00;;;21.80;95.30;;;;;;5071847;28;20075;-79
2023/04/22 09:40:34;;;;;;;9.10;8.20;;;21.80;95.00;;;;;;5087872;28;20071;-78
2023/04/22 09:43:02;;;;;;;9.23;8.43;;;22.10;94.90;;;;;;5070303;28;20052;-78
2023/04/22 09:45:39;;;;;;;8.57;7.68;;;22.00;95.70;;;;;;5088568;28;20219;-79
2023/04/22 09:48:23;;;;;;;8.02;7.22;;;23.00;94.10;;;;;;5069475;28;20068;-81
2023/04/22 09:50:49;;;;;;;9.52;8.63;;;22.30;93.50;;;;;;5069547;28;20147;-78
2023/04/22 09:53:19;;;;;;;9.30;7.90;;;21.70;93.90;;;;;;5076791;28;20391;-81
2023/04/22 09:55:47;;;;;;;8.75;7.90;;;21.70;94.40;;;;;;5081261;28;20047;-80
2023/04/22 09:58:14;;;;;;;8.55;7.75;;;21.20;95.00;;;;;;5063487;28;20597;-80
2023/04/22 10:00:48;;;;;;;8.35;7.55;;;21.30;95.10;;;;;;5099876;28;20052;-78
2023/04/22 10:03:14;;;;;;;8.48;7.20;;;20.80;95.10;;;;;;5083931;28;20081;-78
2023/04/22 10:05:41;;;;;;;8.25;7.55;;;21.00;93.50;;;;;;5101234;28;20483;-81
2023/04/22 10:08:09;;;;;;;8.13;7.32;;;20.60;94.00;;;;;;5063385;28;20511;-80
2023/04/22 10:10:36;;;;;;;7.45;6.40;;;20.80;94.40;;;;;;5093840;28;20044;-80
2023/04/22 10:13:03;;;;;;;7.00;6.40;;;21.10;94.20;;;;;;5090359;28;20043;-80
2023/04/22 10:15:41;;;;;;;7.18;6.57;;;21.10;93.10;;;;;;5062430;28;20064;-80
2023/04/22 10:18:10;;;;;;;8.20;7.47;;;21.60;93.10;;;;;;5070799;28;20095;-80
2023/04/22 10:20:57;;;;;;;8.07;7.28;;;21.30;93.40;;;;;;5083948;28;20058;-80
2023/04/22 10:23:34;;;;;;;8.52;7.72;;;21.40;93.30;;;;;;5099869;28;20050;-80
2023/04/22 10:26:04;;;;;;;8.98;8.13;;;21.40;93.20;;;;;;5101519;28;20043;-78
2023/04/22 10:28:35;;;;;;;8.18;7.40;;;21.60;91.70;;;;;;5068375;28;20043;-80
2023/04/22 10:31:05;;;;;;;9.05;8.15;;;21.70;92.40;;;;;;5044799;28;20051;-80
2023/04/22 10:33:35;;;;;;;7.65;6.95;;;21.50;93.00;;;;;;5074955;28;20035;-80
2023/04/22 10:36:13;;;;;;;8.48;7.15;;;21.70;92.30;;;;;;5083150;28;20092;-80
2023/04/22 10:39:12;;;;;;;7.90;6.90;;;21.80;92.50;;;;;;5100405;28;20048;-79
2023/04/22 10:41:37;;;;;;;8.20;7.47;;;21.20;92.10;;;;;;5082559;28;20126;-79
2023/04/22 10:44:07;;;;;;;7.75;6.80;;;21.50;91.90;;;;;;5099753;28;20268;-78
2023/04/22 10:46:33;;;;;;;6.47;5.88;;;21.50;92.70;;;;;;5075828;28;20105;-79
2023/04/22 10:49:08;;;;;;;6.88;6.28;;;22.00;91.70;;;;;;5090187;28;20134;-80
2023/04/22 10:51:50;;;;;;;6.97;6.28;;;21.80;91.60;;;;;;5092791;28;20044;-80
2023/04/22 10:54:27;;;;;;;7.05;6.45;;;22.10;92.40;;;;;;5092584;28;20047;-77
2023/04/22 10:57:06;;;;;;;7.38;6.28;;;22.20;90.60;;;;;;5090957;28;20043;-78
2023/04/22 10:59:33;;;;;;;5.97;5.47;;;21.60;91.10;;;;;;5091494;28;20541;-77
2023/04/22 11:02:12;;;;;;;7.22;6.53;;;21.90;91.50;;;;;;5056870;28;20470;-78
2023/04/22 11:04:38;;;;;;;6.63;6.03;;;21.50;90.50;;;;;;5073352;28;20518;-79
2023/04/22 11:07:39;;;;;;;5.88;5.20;;;21.90;90.50;;;;;;5090823;28;20114;-79
2023/04/22 11:10:05;;;;;;;6.70;5.38;;;22.10;91.10;;;;;;5079066;28;20092;-79
2023/04/22 11:12:34;;;;;;;9.25;6.10;;;22.00;90.90;;;;;;5101494;28;20119;-79
2023/04/22 11:15:17;;;;;;;6.90;5.93;;;21.80;91.30;;;;;;5098774;28;20112;-81
2023/04/22 11:17:44;;;;;;;9.83;7.83;;;21.90;91.30;;;;;;5083188;28;20488;-80
2023/04/22 11:20:11;;;;;;;6.15;5.55;;;21.70;91.70;;;;;;5077519;28;20381;-80
2023/04/22 11:22:42;;;;;;;5.80;5.03;;;21.70;91.20;;;;;;5072669;28;20083;-78
2023/04/22 11:25:10;;;;;;;7.25;5.30;;;22.00;91.70;;;;;;5089486;28;20595;-79
2023/04/22 11:27:37;;;;;;;8.00;5.43;;;21.90;90.90;;;;;;5056329;28;20540;-79
2023/04/22 11:30:19;;;;;;;6.38;5.78;;;22.20;91.80;;;;;;5055754;28;20039;-81
2023/04/22 11:32:52;;;;;;;6.20;4.95;;;22.20;90.30;;;;;;5089756;28;20051;-82
2023/04/22 11:35:26;;;;;;;6.45;5.70;;;22.20;89.20;;;;;;5073121;28;20105;-81
2023/04/22 11:38:04;;;;;;;5.57;5.03;;;22.00;90.40;;;;;;5089603;28;20123;-82
2023/04/22 11:40:34;;;;;;;5.88;5.38;;;22.10;91.60;;;;;;5056797;28;20499;-81
2023/04/22 11:43:04;;;;;;;6.10;5.60;;;22.00;90.20;;;;;;5072360;28;20348;-82
2023/04/22 11:45:31;;;;;;;6.22;5.63;;;21.90;90.10;;;;;;5089930;28;20044;-81
2023/04/22 11:47:56;;;;;;;6.68;5.72;;;21.60;90.70;;;;;;5058338;28;20097;-81
2023/04/22 11:50:27;;;;;;;8.55;6.22;;;21.70;90.60;;;;;;5075910;28;20044;-81
2023/04/22 11:52:54;;;;;;;8.27;6.70;;;21.80;91.00;;;;;;5095545;28;20437;-82
2023/04/22 11:55:31;;;;;;;8.05;6.82;;;21.80;91.00;;;;;;5081936;28;20079;-82
2023/04/22 11:58:23;;;;;;;9.52;7.20;;;21.80;91.40;;;;;;5091752;28;20056;-82
2023/04/22 12:00:50;;;;;;;7.75;6.68;;;22.10;91.50;;;;;;5070792;28;20048;-82
2023/04/22 12:03:20;;;;;;;9.77;7.28;;;22.30;90.90;;;;;;5098956;28;20531;-82
2023/04/22 12:05:56;;;;;;;9.15;7.45;;;22.10;90.10;;;;;;5099530;28;20071;-82
2023/04/22 12:08:30;;;;;;;7.30;6.60;;;21.90;90.50;;;;;;5090706;28;20052;-82
2023/04/22 12:11:00;;;;;;;7.32;6.63;;;21.90;91.30;;;;;;5089360;28;20166;-78
2023/04/22 12:13:40;;;;;;;7.50;6.68;;;21.80;91.50;;;;;;5104934;28;20048;-81
2023/04/22 12:16:11;;;;;;;7.78;7.07;;;21.90;91.60;;;;;;5087466;28;20044;-83
2023/04/22 12:18:55;;;;;;;9.90;6.10;;;21.70;91.20;;;;;;5075545;28;20055;-79
2023/04/22 12:21:23;;;;;;;;;;;21.70;90.60;;;;;;5093895;28;20047;-82
2023/04/22 12:23:58;;;;;;;7.15;6.45;;;21.70;91.10;;;;;;5111119;28;20362;-82
2023/04/22 12:26:24;;;;;;;7.20;6.50;;;21.60;92.60;;;;;;5109730;28;20040;-82
2023/04/22 12:28:51;;;;;;;7.88;7.07;;;21.70;92.00;;;;;;5109885;28;20081;-81
2023/04/22 12:31:17;;;;;;;7.32;6.63;;;21.70;91.80;;;;;;5076237;28;20134;-81
2023/04/22 12:33:43;;;;;;;7.75;7.05;;;21.70;91.60;;;;;;5075610;28;20150;-81
2023/04/22 12:36:09;;;;;;;8.30;6.90;;;21.60;91.20;;;;;;5109128;28;20229;-82
2023/04/22 12:38:35;;;;;;;7.15;6.45;;;21.60;91.70;;;;;;5085803;28;20506;-81
2023/04/22 12:41:02;;;;;;;6.05;5.55;;;21.80;90.70;;;;;;5110454;27;20051;-82